MST,Max TemperatureF,Mean TemperatureF,Min TemperatureF,Max Dew PointF,MeanDew PointF,Min DewpointF,Max Humidity, Mean Humidity, Min Humidity, Max Sea Level PressureIn, Mean Sea Level PressureIn, Min Sea Level PressureIn, Max VisibilityMiles, Mean VisibilityMiles, Min VisibilityMiles, Max Wind SpeedMPH, Mean Wind SpeedMPH, Max Gust SpeedMPH,PrecipitationIn, CloudCover, Events, WindDirDegrees
2011-1-1,13,3,-7,-1,-4,-8,79,69,58,30.17,30.08,29.79,10,10,3,36,12,44,T,2,Snow,290
2011-1-2,34,20,5,22,11,-4,81,67,53,30.03,30.01,29.96,10,10,10,23,12,29,0.00,4,,285
2011-1-3,25,13,0,18,9,-2,91,77,62,30.17,30.08,29.97,10,10,10,22,10,26,0.00,3,,287
2011-1-4,32,15,-2,16,8,-2,87,68,49,30.11,30.03,29.92,10,10,10,20,10,22,0.00,1,,266
2011-1-5,39,27,14,30,21,8,82,73,64,29.99,29.94,29.88,10,10,10,22,11,28,0.00,5,,287
2011-1-6,45,36,26,32,28,21,76,69,62,29.94,29.85,29.77,10,10,10,32,11,40,0.00,6,,283
2011-1-7,37,31,24,29,21,18,81,72,63,30.03,29.97,29.87,10,10,10,36,19,46,0.00,7,,325
2011-1-8,25,20,14,18,12,6,88,78,67,29.98,29.87,29.79,10,6,1,20,12,24,0.09,8,Snow,96
2011-1-9,14,8,1,11,7,-3,92,83,73,30.34,30.02,29.80,10,6,1,17,11,21,0.03,8,Snow,18
2011-1-10,8,-1,-10,2,-5,-15,86,73,60,30.58,30.48,30.35,10,9,5,18,11,24,T,2,Snow,306
2011-1-11,6,-3,-12,-4,-8,-15,83,73,63,30.79,30.63,30.46,10,9,4,28,12,33,0.00,4,Snow,301
2011-1-12,15,-2,-19,8,-7,-23,86,78,69,30.81,30.57,30.16,10,10,10,14,6,16,0.01,1,,70
2011-1-13,43,27,10,27,17,5,84,69,53,30.21,30.16,30.12,10,10,10,17,7,21,0.00,5,,20
2011-1-14,39,25,10,29,13,5,88,78,67,30.41,30.22,30.08,10,10,10,28,8,35,T,6,,352
2011-1-15,14,12,9,8,5,3,92,80,67,30.43,30.32,30.19,10,8,2,13,6,15,0.00,8,Snow,63
2011-1-16,37,22,7,32,16,4,100,91,81,30.21,29.86,29.54,10,7,0,12,5,14,0.00,6,Fog-Snow,109
2011-1-17,39,25,10,36,19,2,96,81,66,30.06,29.76,29.50,10,9,2,26,11,31,T,7,Rain-Snow,352
2011-1-18,11,4,-4,5,2,-7,88,81,73,30.24,30.07,29.95,10,5,1,14,6,18,0.06,7,Snow,84
2011-1-19,17,5,-7,7,0,-11,87,74,61,30.36,30.26,30.18,10,10,10,15,5,16,0.00,2,,277
2011-1-20,15,10,4,7,5,1,91,79,67,30.42,30.22,29.95,10,10,10,14,7,16,T,6,Snow,82
2011-1-21,38,24,10,29,16,6,92,78,64,29.96,29.86,29.76,10,7,2,24,9,30,0.01,6,Snow,295
2011-1-22,25,14,3,22,8,-2,96,86,76,30.34,29.91,29.61,10,6,1,24,12,26,0.01,8,Snow,66
2011-1-23,39,21,3,30,14,0,91,73,54,30.27,29.98,29.78,10,10,10,26,11,33,0.00,3,,269
2011-1-24,35,22,9,29,21,8,92,78,64,30.16,30.08,29.91,10,10,10,29,14,36,0.00,4,,304
2011-1-25,36,23,10,28,14,7,92,80,68,30.09,30.04,30.01,10,10,10,16,8,,T,2,Rain,281
2011-1-26,,,,,,,,,,,,,,,,,,,,,,
2011-1-27,47,40,32,32,29,28,82,70,58,29.94,29.90,29.83,10,10,10,22,10,29,0.00,0,,278
2011-1-28,50,39,28,32,28,25,92,69,46,29.95,29.86,29.80,10,10,10,24,9,32,0.00,0,,279
2011-1-29,30,22,14,27,21,11,92,84,75,30.31,30.10,29.89,10,8,1,17,10,22,T,7,,56
2011-1-30,14,8,2,8,2,-3,95,86,76,30.44,30.31,30.18,10,6,2,22,14,25,T,8,Rain-Snow,63
2011-1-31,2,-3,-9,-4,-8,-16,87,76,64,30.79,30.48,30.31,10,6,2,31,19,39,0.03,7,Snow,336